createdAt,value
2023-02-11T00:00:06.125Z,1005.00
2023-02-11T00:01:06.828Z,1005.00
2023-02-11T00:02:06.345Z,1004.00
2023-02-11T00:03:06.256Z,1000.00
2023-02-11T00:04:06.216Z,1001.00
2023-02-11T00:05:06.243Z,1002.00
2023-02-11T00:06:06.259Z,999.00
2023-02-11T00:07:06.279Z,999.00
2023-02-11T00:08:06.304Z,1003.00
2023-02-11T00:09:06.341Z,1005.00
2023-02-11T00:10:06.361Z,1006.00
2023-02-11T00:11:06.451Z,1005.00
2023-02-11T00:12:06.463Z,1003.00
2023-02-11T00:13:06.432Z,1000.00
2023-02-11T00:14:06.453Z,1000.00
2023-02-11T00:15:06.488Z,1002.00
2023-02-11T00:16:06.497Z,1004.00
2023-02-11T00:17:06.517Z,1005.00
2023-02-11T00:18:06.545Z,1007.00
2023-02-11T00:19:06.570Z,1004.00
2023-02-11T00:20:08.238Z,1002.00
2023-02-11T00:21:06.611Z,1003.00
2023-02-11T00:22:06.653Z,1001.00
2023-02-11T00:23:06.658Z,997.00
2023-02-11T00:24:06.675Z,997.00
2023-02-11T00:25:06.755Z,994.00
2023-02-11T00:26:06.716Z,990.00
2023-02-11T00:27:06.734Z,987.00
2023-02-11T00:28:06.798Z,987.00
2023-02-11T00:29:06.783Z,989.00
2023-02-11T00:30:06.812Z,987.00
2023-02-11T00:31:06.924Z,989.00
2023-02-11T00:32:06.844Z,988.00
2023-02-11T00:33:06.876Z,985.00
2023-02-11T00:34:06.894Z,986.00
2023-02-11T00:35:06.915Z,985.00
2023-02-11T00:36:06.938Z,980.00
2023-02-11T00:37:06.968Z,977.00
2023-02-11T00:38:06.990Z,976.00
2023-02-11T00:39:07.002Z,980.00
2023-02-11T00:40:07.048Z,978.00
2023-02-11T00:41:07.048Z,974.00
2023-02-11T00:42:07.140Z,971.00
2023-02-11T00:43:07.094Z,972.00
2023-02-11T00:44:07.119Z,971.00
2023-02-11T00:45:07.145Z,966.00
2023-02-11T00:46:07.196Z,967.00
2023-02-11T00:47:07.218Z,964.00
2023-02-11T00:48:07.320Z,964.00
2023-02-11T00:50:07.842Z,963.00
2023-02-11T00:51:07.327Z,960.00
2023-02-11T00:52:07.331Z,958.00
2023-02-11T00:53:07.376Z,954.00
2023-02-11T00:54:07.391Z,949.00
2023-02-11T00:55:07.418Z,949.00
2023-02-11T00:56:07.442Z,946.00
2023-02-11T00:57:07.472Z,942.00
2023-02-11T00:58:07.509Z,943.00
2023-02-11T01:47:08.916Z,893.00
2023-02-11T01:53:09.107Z,896.00
2023-02-11T01:55:09.165Z,891.00
2023-02-11T01:56:09.193Z,890.00
2023-02-11T01:57:09.232Z,889.00
2023-02-11T01:58:09.261Z,882.00
2023-02-11T01:59:09.310Z,882.00
2023-02-11T02:00:09.326Z,880.00
2023-02-11T02:01:09.349Z,880.00
2023-02-11T02:02:09.374Z,877.00
2023-02-11T02:03:09.414Z,876.00
2023-02-11T02:04:09.467Z,873.00
2023-02-11T02:05:09.489Z,873.00
2023-02-11T02:06:09.514Z,869.00
2023-02-11T02:07:09.552Z,868.00
2023-02-11T02:08:09.574Z,868.00
2023-02-11T02:09:09.614Z,865.00
2023-02-11T02:10:09.651Z,865.00
2023-02-11T02:12:09.701Z,865.00
2023-02-11T02:13:09.742Z,861.00
2023-02-11T02:14:09.777Z,861.00
2023-02-11T02:15:09.818Z,862.00
2023-02-11T02:16:10.192Z,862.00
2023-02-11T02:17:09.870Z,860.00
2023-02-11T02:19:10.920Z,856.00
2023-02-11T02:20:10.029Z,853.00
2023-02-11T02:21:10.000Z,851.00
2023-02-11T02:22:10.036Z,853.00
2023-02-11T02:23:10.069Z,855.00
2023-02-11T02:24:11.998Z,857.00
2023-02-11T02:25:10.107Z,855.00
2023-02-11T02:26:10.116Z,856.00
2023-02-11T02:27:10.144Z,855.00
2023-02-11T02:28:10.228Z,855.00
2023-02-11T02:29:10.169Z,856.00
2023-02-11T02:30:10.186Z,856.00
2023-02-11T02:31:10.341Z,854.00
2023-02-11T02:32:10.222Z,854.00
2023-02-11T02:33:21.852Z,853.00
2023-02-11T02:34:11.270Z,852.00
2023-02-11T02:35:10.282Z,851.00
2023-02-11T02:36:10.297Z,851.00
2023-02-11T02:37:10.330Z,851.00
2023-02-11T02:38:10.342Z,850.00
2023-02-11T02:39:10.353Z,850.00
2023-02-11T02:40:10.369Z,850.00
2023-02-11T02:41:10.383Z,847.00
2023-02-11T02:42:10.404Z,846.00
2023-02-11T04:48:15.431Z,743.00
2023-02-11T04:51:15.167Z,742.00
2023-02-11T04:52:15.213Z,742.00
2023-02-11T04:53:15.270Z,742.00
2023-02-11T04:54:15.296Z,738.00
2023-02-11T04:55:15.342Z,735.00
2023-02-11T04:56:15.393Z,732.00
2023-02-11T04:57:15.434Z,730.00
2023-02-11T04:58:15.481Z,730.00
2023-02-11T05:00:15.591Z,729.00
2023-02-11T05:01:15.667Z,731.00
2023-02-11T05:02:15.672Z,732.00
2023-02-11T05:03:15.712Z,733.00
2023-02-11T05:04:15.844Z,734.00
2023-02-11T05:05:15.801Z,733.00
2023-02-11T05:06:15.852Z,733.00
2023-02-11T05:08:15.947Z,729.00
2023-02-11T05:09:15.981Z,726.00
2023-02-11T08:02:25.199Z,644.00
2023-02-11T08:04:25.524Z,644.00
2023-02-11T08:05:25.238Z,647.00
2023-02-11T08:06:25.325Z,648.00
2023-02-11T08:07:25.355Z,650.00
2023-02-11T08:08:25.426Z,651.00
2023-02-11T08:09:25.481Z,650.00
2023-02-11T08:10:25.512Z,643.00
2023-02-11T08:11:25.575Z,646.00
2023-02-11T08:12:25.632Z,645.00
2023-02-11T08:13:25.668Z,646.00
2023-02-11T08:14:25.731Z,645.00
2023-02-11T08:15:25.778Z,646.00
2023-02-11T08:16:26.579Z,647.00
2023-02-11T08:17:25.894Z,646.00
2023-02-11T08:18:25.941Z,645.00
2023-02-11T08:19:26.014Z,648.00
2023-02-11T08:20:26.144Z,646.00
2023-02-11T08:21:26.113Z,645.00
2023-02-11T08:22:26.166Z,645.00
2023-02-11T08:23:26.294Z,642.00
2023-02-11T08:24:26.270Z,642.00
2023-02-11T08:25:26.316Z,642.00
2023-02-11T08:26:26.386Z,645.00
2023-02-11T08:27:26.439Z,646.00
2023-02-11T08:28:26.513Z,646.00
2023-02-11T08:30:27.632Z,643.00
2023-02-11T08:31:26.814Z,642.00
2023-02-11T08:32:26.683Z,641.00
2023-02-11T08:33:26.739Z,642.00
2023-02-11T08:34:26.788Z,644.00
2023-02-11T08:35:26.846Z,644.00
2023-02-11T08:36:26.897Z,644.00
2023-02-11T08:37:26.942Z,643.00
2023-02-11T08:38:26.996Z,644.00
2023-02-11T08:39:27.049Z,642.00
2023-02-11T08:40:27.108Z,641.00
2023-02-11T08:41:27.160Z,639.00
2023-02-11T08:42:27.211Z,638.00
2023-02-11T08:44:27.310Z,635.00
2023-02-11T08:45:27.372Z,636.00
2023-02-11T08:46:27.502Z,635.00
2023-02-11T12:22:35.568Z,584.00
2023-02-11T12:25:35.151Z,584.00
2023-02-11T12:26:35.189Z,583.00
2023-02-11T12:27:35.213Z,584.00
2023-02-11T12:28:35.310Z,583.00
2023-02-11T12:29:35.288Z,580.00
2023-02-11T12:31:35.480Z,582.00
2023-02-11T12:32:35.393Z,582.00
2023-02-11T12:33:35.427Z,579.00
2023-02-11T12:34:35.463Z,576.00
2023-02-11T12:35:35.520Z,577.00
2023-02-11T12:37:35.569Z,575.00
2023-02-11T12:38:35.609Z,574.00
2023-02-11T12:39:35.654Z,573.00
2023-02-11T12:40:35.694Z,571.00
2023-02-11T12:41:35.733Z,571.00
2023-02-11T12:42:35.760Z,568.00
2023-02-11T12:43:35.828Z,564.00
2023-02-11T12:44:35.834Z,565.00
2023-02-11T12:45:35.917Z,566.00
2023-02-11T12:46:35.911Z,568.00
2023-02-11T12:47:35.949Z,570.00
2023-02-11T12:48:36.008Z,572.00
2023-02-11T12:49:36.023Z,574.00
2023-02-11T12:50:36.059Z,576.00
2023-02-11T12:51:36.092Z,577.00
2023-02-11T12:52:36.126Z,577.00
2023-02-11T12:53:36.186Z,580.00
2023-02-11T12:54:36.212Z,580.00
2023-02-11T12:55:36.239Z,581.00
2023-02-11T12:56:36.277Z,582.00
2023-02-11T12:57:36.336Z,583.00
2023-02-11T12:58:45.032Z,583.00
2023-02-11T13:00:36.372Z,583.00
2023-02-11T13:01:36.482Z,582.00
2023-02-11T13:02:36.480Z,579.00
2023-02-11T13:03:36.408Z,580.00
2023-02-11T13:04:36.419Z,582.00
2023-02-11T13:05:36.442Z,581.00
2023-02-11T13:06:36.450Z,580.00
2023-02-11T13:07:36.452Z,580.00
2023-02-11T13:08:36.463Z,578.00
2023-02-11T13:09:36.477Z,578.00
2023-02-11T13:10:36.494Z,580.00
2023-02-11T13:11:36.502Z,582.00
2023-02-11T13:12:36.508Z,582.00
2023-02-11T13:13:36.526Z,580.00
2023-02-11T13:14:36.524Z,584.00
2023-02-11T13:15:36.611Z,583.00
2023-02-11T13:16:36.817Z,579.00
2023-02-11T13:17:36.580Z,579.00
2023-02-11T13:18:36.617Z,579.00
2023-02-11T13:19:36.656Z,574.00
2023-02-11T13:20:36.680Z,574.00
2023-02-11T13:21:36.724Z,572.00
2023-02-11T13:22:36.756Z,572.00
2023-02-11T13:23:36.792Z,572.00
2023-02-11T13:24:36.839Z,572.00
2023-02-11T13:25:36.873Z,570.00
2023-02-11T13:26:36.903Z,570.00
2023-02-11T13:27:36.953Z,571.00
2023-02-11T13:28:37.150Z,572.00
2023-02-11T13:29:37.021Z,569.00
2023-02-11T13:30:37.151Z,569.00
2023-02-11T13:31:37.282Z,568.00
2023-02-11T13:32:37.159Z,565.00
2023-02-11T13:33:37.215Z,567.00
2023-02-11T13:34:37.257Z,569.00
2023-02-11T13:35:37.303Z,566.00
2023-02-11T13:36:37.355Z,568.00
2023-02-11T13:37:37.402Z,569.00
2023-02-11T13:38:37.438Z,567.00
2023-02-11T13:39:37.487Z,567.00
2023-02-11T13:40:37.558Z,567.00
2023-02-11T13:41:37.586Z,570.00
2023-02-11T13:42:37.620Z,568.00
2023-02-11T13:44:37.710Z,566.00
2023-02-11T13:45:37.857Z,566.00
2023-02-11T13:46:37.789Z,569.00
2023-02-11T13:47:37.834Z,569.00
2023-02-11T13:48:37.878Z,570.00
2023-02-11T13:49:37.937Z,570.00
2023-02-11T13:50:37.983Z,570.00
2023-02-11T13:51:38.029Z,570.00
2023-02-11T13:52:38.077Z,570.00
2023-02-11T13:53:38.125Z,571.00
2023-02-11T13:54:38.182Z,569.00
2023-02-11T13:55:38.229Z,569.00
2023-02-11T17:08:45.153Z,559.00
2023-02-11T17:09:45.194Z,557.00
2023-02-11T17:10:45.235Z,557.00
2023-02-11T17:11:45.260Z,557.00
2023-02-11T17:12:45.306Z,555.00
2023-02-11T17:13:45.350Z,552.00
2023-02-11T17:14:45.389Z,550.00
2023-02-11T17:15:45.422Z,552.00
2023-02-11T17:16:45.504Z,554.00
2023-02-11T17:17:45.564Z,556.00
2023-02-11T17:18:45.555Z,556.00
2023-02-11T17:19:45.579Z,556.00
2023-02-11T17:20:45.685Z,556.00
2023-02-11T17:21:45.676Z,554.00
2023-02-11T17:22:45.697Z,551.00
2023-02-11T17:23:45.743Z,553.00
2023-02-11T17:24:45.784Z,554.00
2023-02-11T17:25:45.820Z,552.00
2023-02-11T17:26:45.929Z,552.00
2023-02-11T17:27:45.903Z,552.00
2023-02-11T17:28:45.942Z,552.00
2023-02-11T17:29:45.995Z,553.00
2023-02-11T17:30:46.082Z,551.00
2023-02-11T17:31:46.085Z,550.00
2023-02-11T17:32:46.115Z,551.00
2023-02-11T17:33:46.146Z,552.00
2023-02-11T17:34:46.184Z,550.00
2023-02-11T17:35:46.229Z,548.00
2023-02-11T17:36:46.268Z,550.00
2023-02-11T17:43:46.541Z,558.00
2023-02-11T17:44:46.584Z,557.00
2023-02-11T17:45:46.698Z,556.00
2023-02-11T17:46:46.674Z,558.00
2023-02-11T17:47:46.702Z,558.00
2023-02-11T17:48:46.740Z,557.00
2023-02-11T17:49:46.786Z,557.00
2023-02-11T17:50:46.825Z,558.00
2023-02-11T17:51:46.878Z,559.00
2023-02-11T17:52:46.917Z,559.00
2023-02-11T17:53:46.954Z,558.00
2023-02-11T17:55:47.046Z,555.00
2023-02-11T17:56:47.088Z,554.00
2023-02-11T21:11:55.155Z,535.00
2023-02-11T21:12:55.194Z,535.00
2023-02-11T21:13:55.255Z,534.00
2023-02-11T21:14:55.289Z,533.00
2023-02-11T21:16:55.367Z,533.00
2023-02-11T21:22:55.640Z,534.00
2023-02-11T21:23:55.695Z,534.00
2023-02-11T21:24:55.723Z,536.00
2023-02-11T21:25:56.152Z,536.00
2023-02-11T21:26:55.810Z,534.00
2023-02-11T21:27:55.927Z,532.00
2023-02-11T21:28:55.906Z,529.00
2023-02-11T21:29:55.949Z,527.00
2023-02-11T21:30:56.113Z,528.00
2023-02-11T21:31:56.165Z,528.00
2023-02-11T21:32:56.083Z,530.00
2023-02-11T21:33:56.135Z,531.00
2023-02-11T21:34:56.176Z,531.00
2023-02-11T21:35:56.616Z,532.00
2023-02-11T21:36:56.254Z,534.00
2023-02-11T21:37:56.302Z,535.00
2023-02-11T21:38:56.344Z,537.00
2023-02-11T21:39:56.394Z,537.00
2023-02-11T21:40:56.468Z,537.00
2023-02-11T21:41:56.476Z,537.00
2023-02-11T21:42:56.533Z,536.00
2023-02-11T21:43:56.584Z,537.00
2023-02-11T21:44:56.618Z,534.00
2023-02-11T21:45:56.875Z,536.00
2023-02-11T21:46:56.786Z,535.00
2023-02-11T21:47:56.749Z,535.00
2023-02-11T21:48:57.282Z,534.00
2023-02-11T21:49:56.828Z,532.00
2023-02-11T21:50:56.872Z,533.00
2023-02-11T21:51:56.916Z,533.00
2023-02-11T21:52:57.049Z,534.00
2023-02-11T21:53:57.006Z,534.00
2023-02-11T21:54:57.042Z,533.00
2023-02-11T21:55:57.160Z,534.00
2023-02-11T21:56:57.139Z,533.00
2023-02-11T21:57:57.780Z,534.00
2023-02-11T21:58:57.266Z,533.00
2023-02-11T21:59:57.269Z,536.00
2023-02-11T22:00:57.434Z,534.00
2023-02-11T22:01:57.355Z,533.00
2023-02-11T22:02:57.518Z,533.00
2023-02-11T22:03:57.449Z,532.00
2023-02-11T22:04:57.583Z,530.00
2023-02-11T22:05:57.718Z,530.00
2023-02-11T22:06:57.584Z,528.00
2023-02-11T22:07:57.623Z,524.00
2023-02-11T22:08:57.662Z,521.00
2023-02-11T22:09:57.711Z,525.00
2023-02-11T22:10:57.758Z,525.00
2023-02-11T22:11:57.802Z,525.00
2023-02-11T22:12:57.850Z,524.00
2023-02-11T22:13:57.988Z,522.00
2023-02-11T22:14:57.960Z,521.00
2023-02-11T22:15:58.130Z,525.00
2023-02-11T22:16:58.035Z,525.00
2023-02-11T22:17:58.127Z,525.00
2023-02-11T22:18:58.117Z,526.00
2023-02-11T22:19:58.240Z,528.00
2023-02-11T22:20:58.201Z,529.00
2023-02-11T22:21:58.248Z,526.00
2023-02-11T22:22:58.296Z,525.00
2023-02-11T22:23:59.318Z,527.00
2023-02-11T22:24:58.397Z,529.00
2023-02-11T22:25:58.482Z,525.00
2023-02-11T22:26:58.488Z,527.00
2023-02-11T22:27:58.584Z,528.00
2023-02-11T22:28:58.593Z,527.00
2023-02-11T22:29:58.637Z,525.00
2023-02-11T22:30:58.707Z,527.00
2023-02-11T22:31:58.811Z,528.00
2023-02-11T22:32:58.765Z,529.00
2023-02-11T22:33:58.816Z,526.00
2023-02-11T22:34:58.866Z,526.00
2023-02-11T22:35:58.916Z,527.00
2023-02-11T22:36:58.966Z,528.00
2023-02-11T22:37:59.016Z,528.00
